createdAt,value
2022-11-28T00:01:39.461Z,4.2
2022-11-28T00:16:15.851Z,4.4
2022-11-28T00:30:48.900Z,4.3
2022-11-28T00:45:20.990Z,4.9
2022-11-28T00:59:53.944Z,5.1
2022-11-28T01:14:20.597Z,5.7
2022-11-28T01:28:51.333Z,5.3
2022-11-28T01:43:27.140Z,5.9
2022-11-28T01:58:01.446Z,5.2
2022-11-28T02:12:28.743Z,5.4
2022-11-28T02:26:58.436Z,5.5
2022-11-28T02:41:27.921Z,6.6
2022-11-28T02:55:58.160Z,6.3
2022-11-28T03:10:28.199Z,6.2
2022-11-28T03:24:58.792Z,6.4
2022-11-28T03:39:29.245Z,6
2022-11-28T03:53:59.539Z,6
2022-11-28T04:08:29.404Z,5.9
2022-11-28T04:22:58.647Z,6.2
2022-11-28T04:37:29.199Z,6.1
2022-11-28T04:51:59.922Z,6.1
2022-11-28T05:06:30.838Z,6.1
2022-11-28T05:21:01.576Z,6.2
2022-11-28T05:35:28.666Z,6.1
2022-11-28T05:49:57.605Z,5.9
2022-11-28T06:04:28.590Z,6
2022-11-28T06:18:58.383Z,5.9
2022-11-28T06:33:28.040Z,5.5
2022-11-28T06:47:58.160Z,5.7
2022-11-28T07:02:29.655Z,5.6
2022-11-28T07:16:59.440Z,5.3
2022-11-28T07:31:35.882Z,5.6
2022-11-28T07:46:09.230Z,5.5
2022-11-28T08:00:37.746Z,5.6
2022-11-28T08:15:08.563Z,5.8
2022-11-28T08:29:39.834Z,6.5
2022-11-28T08:44:10.026Z,6.4
2022-11-28T08:58:38.497Z,6.3
2022-11-28T09:13:08.870Z,6.4
2022-11-28T09:27:39.255Z,6.4
2022-11-28T09:42:09.844Z,6.7
2022-11-28T09:56:40.733Z,6.9
2022-11-28T10:11:17.798Z,6.9
2022-11-28T10:25:50.833Z,7
2022-11-28T10:40:17.471Z,7.1
2022-11-28T10:54:54.267Z,7.1
2022-11-28T11:09:20.792Z,7.1
2022-11-28T11:23:56.261Z,6.9
2022-11-28T11:38:22.382Z,7
2022-11-28T11:52:53.273Z,6.7
2022-11-28T12:07:23.801Z,6.9
2022-11-28T12:21:53.806Z,6.8
2022-11-28T12:36:28.468Z,6.8
2022-11-28T12:51:01.766Z,7
2022-11-28T13:05:29.525Z,7.1
2022-11-28T13:20:00.519Z,7.1
2022-11-28T13:34:37.289Z,7.2
2022-11-28T13:49:21.885Z,7.2
2022-11-28T14:03:40.866Z,7.4
2022-11-28T14:18:58.695Z,7.4
2022-11-28T14:33:08.627Z,7.4
2022-11-28T14:47:38.787Z,7.5
2022-11-28T15:02:09.776Z,7.5
2022-11-28T15:16:51.309Z,7.6
2022-11-28T15:31:15.341Z,7.5
2022-11-28T15:45:47.051Z,7.6
2022-11-28T16:00:19.129Z,7.6
2022-11-28T16:14:48.715Z,7.6
2022-11-28T16:29:19.811Z,7.7
2022-11-28T16:43:50.801Z,7.7
2022-11-28T16:58:21.325Z,7.6
2022-11-28T17:12:54.534Z,7.7
2022-11-28T17:27:23.033Z,7.7
2022-11-28T17:41:52.255Z,7.8
2022-11-28T17:56:23.039Z,7.7
2022-11-28T18:10:53.525Z,7.7
2022-11-28T18:25:24.554Z,7.8
2022-11-28T18:39:54.827Z,7.9
2022-11-28T18:54:30.355Z,7.8
2022-11-28T19:09:04.262Z,7.8
2022-11-28T19:23:28.978Z,7.8
2022-11-28T19:38:00.275Z,7.8
2022-11-28T19:52:31.054Z,7.9
2022-11-28T20:07:01.394Z,7.9
2022-11-28T20:21:31.618Z,7.9
2022-11-28T20:36:02.346Z,8
2022-11-28T20:50:33.242Z,8
2022-11-28T21:05:03.277Z,8
2022-11-28T21:19:39.491Z,7.9
2022-11-28T21:34:03.617Z,8.1
2022-11-28T21:48:31.008Z,8.1
2022-11-28T22:03:33.079Z,8.1
2022-11-28T22:17:48.401Z,8.1
2022-11-28T22:32:17.700Z,8.1
2022-11-28T22:46:46.352Z,8.1
2022-11-28T23:01:22.774Z,8.2
2022-11-28T23:15:55.596Z,8.2
2022-11-28T23:30:23.891Z,8.2
2022-11-28T23:44:53.660Z,8.2
2022-11-28T23:59:30.428Z,8.3
